Terminal Aerodrome Forecast
Issued by NWS

Home | Current Version | Previous Version | Text Only | Print | Product List | Glossary On
Versions: 1 2 3 4 5 6 7 8 9 10 11 12 13
000
FTUS45 KRIW 111100
TAFCPR
TAF
KCPR 111134Z 1112/1212 22007KT P6SM VCSH SCT070 BKN100
     FM111800 VRB06KT P6SM VCTS SCT060CB BKN100
      TEMPO 1120/1124 VRB10G20KT 2SM +TSRA BKN030CB
     FM120400 09007KT P6SM VCSH SCT070 BKN150
     FM120800 VRB05KT P6SM SCT100=

USA.gov is the U.S. government's official web portal to all federal, state and local government web resources and services.